^^
Saratoga-Weather Station Historical Data
Daily Summary for April 8, 2020 Units:  Metric    English   Both
Daily Weekly Monthly Yearly Custom
  High: Low: Average:
Temperature: 9.8 °C 2.9 °C 6.8 °C
Dew Point: 9.5 °C 2.3 °C 6.4 °C
Humidity: 99% 96% 98%
Wind Speed: 6.4km/h 0km/h 1.2km/h
Wind Gust: 12.9km/h - -
Wind- - ESE
Pressure: 1028.5 hPa 1024.7 hPa -
Precipitation: 2.3 mm    
Historical Graphs
 
 
Tabular Data for April 8, 2020
Time Temperature Dew Point Pressure Wind Wind Speed Wind Gust Humidity Rainfall Rate (Hourly) solar
00:02 2.9 °C 2.3 °C 1028.5 hPa Calm   3.2 km/h 96% 0.0 mm 0 W/m2
00:07 2.9 °C 2.3 °C 1028.5 hPa ESE 4.7 km/h 4.8 km/h 96% 0.0 mm 0 W/m2
00:12 2.9 °C 2.3 °C 1028.1 hPa Calm   4.8 km/h 96% 0.0 mm 0 W/m2
00:17 2.9 °C 2.3 °C 1028.1 hPa Calm   6.4 km/h 96% 0.0 mm 0 W/m2
00:22 2.9 °C 2.3 °C 1027.8 hPa Calm   6.4 km/h 96% 0.0 mm 0 W/m2
00:27 2.9 °C 2.3 °C 1028.1 hPa Calm     96% 0.0 mm 0 W/m2
00:32 2.9 °C 2.3 °C 1027.8 hPa Calm   6.4 km/h 96% 0.0 mm 0 W/m2
00:37 2.9 °C 2.3 °C 1028.1 hPa Calm   3.2 km/h 96% 0.0 mm 0 W/m2
00:42 2.9 °C 2.3 °C 1028.5 hPa Calm   6.4 km/h 96% 0.0 mm 0 W/m2
00:47 2.9 °C 2.3 °C 1028.5 hPa Calm     96% 0.0 mm 0 W/m2
00:52 2.9 °C 2.3 °C 1028.5 hPa Calm     96% 0.0 mm 0 W/m2
00:57 2.9 °C 2.3 °C 1028.5 hPa Calm     96% 0.0 mm 0 W/m2
01:02 2.9 °C 2.3 °C 1028.1 hPa Calm     96% 0.0 mm 0 W/m2
01:07 2.9 °C 2.3 °C 1028.1 hPa Calm     96% 0.0 mm 0 W/m2
01:12 2.9 °C 2.3 °C 1028.1 hPa Calm     96% 0.0 mm 0 W/m2
01:17 2.9 °C 2.3 °C 1028.1 hPa Calm     96% 0.0 mm 0 W/m2
01:22 2.9 °C 2.3 °C 1028.1 hPa Calm     96% 0.0 mm 0 W/m2
01:27 2.9 °C 2.3 °C 1027.8 hPa Calm     96% 0.0 mm 0 W/m2
01:32 2.9 °C 2.3 °C 1027.8 hPa ESE 3.2 km/h 4.8 km/h 96% 0.0 mm 0 W/m2
01:37 2.9 °C 2.3 °C 1027.8 hPa Calm   6.4 km/h 96% 0.0 mm 0 W/m2
01:42 2.9 °C 2.3 °C 1027.8 hPa SE 1.4 km/h 3.2 km/h 96% 0.0 mm 0 W/m2
01:47 2.9 °C 2.3 °C 1027.8 hPa Calm   6.4 km/h 96% 0.0 mm 0 W/m2
01:52 2.9 °C 2.3 °C 1027.8 hPa Calm     96% 0.0 mm 0 W/m2
01:57 2.9 °C 2.3 °C 1027.4 hPa Calm     96% 0.0 mm 0 W/m2
02:02 3 °C 2.4 °C 1027.4 hPa Calm   6.4 km/h 96% 0.0 mm 0 W/m2
02:08 3.1 °C 2.5 °C 1027.4 hPa Calm     96% 0.0 mm 0 W/m2
02:13 3.1 °C 2.7 °C 1027.4 hPa Calm   6.4 km/h 97% 0.0 mm 0 W/m2
02:18 3.2 °C 2.8 °C 1027.4 hPa Calm     97% 0.0 mm 0 W/m2
02:23 3.2 °C 2.8 °C 1027.4 hPa Calm     97% 0.0 mm 0 W/m2
02:28 3.2 °C 2.8 °C 1027.4 hPa Calm     97% 0.0 mm 0 W/m2
02:33 3.2 °C 2.8 °C 1027.4 hPa Calm     97% 0.0 mm 0 W/m2
02:38 3.2 °C 2.8 °C 1027.4 hPa Calm     97% 0.0 mm 0 W/m2
02:43 3.2 °C 2.8 °C 1027.4 hPa Calm     97% 0.0 mm 0 W/m2
02:48 3.2 °C 2.8 °C 1027.8 hPa Calm     97% 0.0 mm 0 W/m2
02:53 3.3 °C 2.9 °C 1027.4 hPa Calm     97% 0.0 mm 0 W/m2
02:58 3.3 °C 2.9 °C 1027.4 hPa Calm     97% 0.2 mm 0 W/m2
03:03 3.3 °C 2.9 °C 1027.8 hPa Calm     97% 0.2 mm 0 W/m2
03:08 3.3 °C 2.9 °C 1027.8 hPa Calm     97% 0.2 mm 0 W/m2
03:13 3.3 °C 2.9 °C 1027.8 hPa Calm     97% 0.2 mm 0 W/m2
03:18 3.3 °C 2.9 °C 1027.4 hPa Calm     97% 0.2 mm 0 W/m2
03:23 3.3 °C 2.9 °C 1027.4 hPa Calm     97% 0.2 mm 0 W/m2
03:28 3.3 °C 2.9 °C 1027.4 hPa Calm     97% 0.2 mm 0 W/m2
03:33 3.3 °C 2.9 °C 1027.4 hPa Calm     97% 0.2 mm 0 W/m2
03:38 3.3 °C 2.9 °C 1027.4 hPa Calm     97% 0.2 mm 0 W/m2
03:43 3.3 °C 2.9 °C 1027.4 hPa Calm     97% 0.2 mm 0 W/m2
03:48 3.3 °C 2.9 °C 1027.1 hPa Calm     97% 0.2 mm 0 W/m2
03:53 3.3 °C 2.9 °C 1027.1 hPa Calm     97% 0.2 mm 0 W/m2
03:59 3.4 °C 3 °C 1027.1 hPa Calm     97% 0.0 mm 0 W/m2
04:04 3.4 °C 3 °C 1026.8 hPa Calm   1.6 km/h 97% 0.0 mm 0 W/m2
04:09 3.6 °C 3.2 °C 1026.8 hPa Calm     97% 0.0 mm 0 W/m2
04:14 3.7 °C 3.3 °C 1026.8 hPa Calm     97% 0.0 mm 0 W/m2
04:19 3.8 °C 3.4 °C 1026.8 hPa Calm     97% 0.0 mm 0 W/m2
04:24 3.8 °C 3.4 °C 1026.8 hPa Calm     97% 0.0 mm 0 W/m2
04:29 3.8 °C 3.4 °C 1026.8 hPa Calm     97% 0.0 mm 0 W/m2
04:34 3.8 °C 3.4 °C 1026.8 hPa Calm     97% 0.0 mm 0 W/m2
04:39 3.8 °C 3.4 °C 1026.8 hPa Calm     97% 0.0 mm 0 W/m2
04:44 3.7 °C 3.3 °C 1026.4 hPa Calm     97% 0.0 mm 0 W/m2
04:49 3.7 °C 3.3 °C 1026.8 hPa Calm     97% 0.0 mm 0 W/m2
04:54 3.7 °C 3.3 °C 1026.8 hPa Calm     97% 0.0 mm 0 W/m2
04:59 3.8 °C 3.4 °C 1026.8 hPa Calm     97% 0.0 mm 0 W/m2
05:04 3.8 °C 3.4 °C 1026.8 hPa Calm     97% 0.0 mm 0 W/m2
05:09 3.8 °C 3.4 °C 1026.8 hPa Calm     97% 0.0 mm 0 W/m2
05:14 3.8 °C 3.4 °C 1026.8 hPa Calm     97% 0.0 mm 0 W/m2
05:19 3.8 °C 3.4 °C 1026.8 hPa Calm     97% 0.0 mm 0 W/m2
05:24 3.8 °C 3.4 °C 1026.8 hPa Calm     97% 0.0 mm 0 W/m2
05:29 3.9 °C 3.5 °C 1026.8 hPa Calm     97% 0.0 mm 0 W/m2
05:34 3.9 °C 3.5 °C 1026.8 hPa Calm     97% 0.0 mm 0 W/m2
05:39 3.9 °C 3.5 °C 1026.8 hPa Calm     97% 0.0 mm 0 W/m2
05:44 3.9 °C 3.5 °C 1026.8 hPa Calm     97% 0.0 mm 0 W/m2
05:49 4 °C 3.6 °C 1026.8 hPa Calm     97% 0.0 mm 0 W/m2
05:54 4 °C 3.6 °C 1026.8 hPa Calm     97% 0.0 mm 0 W/m2
05:59 4.1 °C 3.7 °C 1027.1 hPa Calm     97% 0.0 mm 0 W/m2
06:04 4.1 °C 3.7 °C 1027.1 hPa Calm     97% 0.0 mm 0 W/m2
06:09 4.1 °C 3.7 °C 1026.8 hPa Calm     97% 0.0 mm 0 W/m2
06:14 4.2 °C 3.8 °C 1027.1 hPa Calm     97% 0.0 mm 0 W/m2
06:19 4.2 °C 3.8 °C 1027.1 hPa Calm     97% 0.0 mm 0 W/m2
06:24 4.3 °C 3.9 °C 1027.1 hPa Calm     97% 0.0 mm 0 W/m2
06:29 4.3 °C 4 °C 1027.1 hPa Calm     98% 0.2 mm 0 W/m2
06:34 4.4 °C 4.1 °C 1026.8 hPa Calm     98% 0.2 mm 0 W/m2
06:39 4.4 °C 4.1 °C 1026.8 hPa East 4.7 km/h 6.4 km/h 98% 0.5 mm 0 W/m2
06:44 4.6 °C 4.2 °C 1026.8 hPa Calm     97% 0.5 mm 0 W/m2
06:49 4.6 °C 4.2 °C 1026.8 hPa East 1.4 km/h 3.2 km/h 97% 0.5 mm 0 W/m2
06:54 4.6 °C 4.2 °C 1026.8 hPa Calm     97% 0.5 mm 0 W/m2
06:59 4.7 °C 4.4 °C 1026.8 hPa Calm     98% 0.5 mm 0 W/m2
07:04 4.7 °C 4.4 °C 1026.8 hPa Calm     98% 0.5 mm 0 W/m2
07:09 4.7 °C 4.4 °C 1026.8 hPa Calm     98% 0.5 mm 0 W/m2
07:14 4.7 °C 4.4 °C 1026.8 hPa Calm     98% 0.5 mm 0 W/m2
07:19 4.8 °C 4.5 °C 1026.8 hPa Calm     98% 0.5 mm 0 W/m2
07:24 4.8 °C 4.5 °C 1026.8 hPa Calm     98% 0.5 mm 0 W/m2
07:30 4.9 °C 4.6 °C 1026.8 hPa Calm     98% 0.2 mm 0 W/m2
07:35 4.9 °C 4.6 °C 1026.8 hPa Calm     98% 0.2 mm 0 W/m2
07:40 4.9 °C 4.6 °C 1026.8 hPa Calm     98% 0.0 mm 0 W/m2
07:45 5 °C 4.7 °C 1026.8 hPa Calm     98% 0.2 mm 0 W/m2
07:50 5.1 °C 4.8 °C 1026.8 hPa Calm     98% 0.2 mm 0 W/m2
07:55 5.2 °C 4.9 °C 1026.8 hPa Calm     98% 0.2 mm 0 W/m2
08:00 5.2 °C 4.9 °C 1026.8 hPa Calm     98% 0.2 mm 0 W/m2
08:05 5.2 °C 4.9 °C 1026.8 hPa Calm     98% 0.2 mm 0 W/m2
08:10 5.3 °C 5 °C 1026.8 hPa Calm   3.2 km/h 98% 0.2 mm 0 W/m2
08:15 5.3 °C 5 °C 1026.8 hPa ESE 3.2 km/h 6.4 km/h 98% 0.2 mm 0 W/m2
08:20 5.3 °C 5 °C 1026.8 hPa ESE 1.4 km/h 4.8 km/h 98% 0.2 mm 0 W/m2
08:25 5.4 °C 5.1 °C 1026.8 hPa ESE 1.4 km/h 3.2 km/h 98% 0.2 mm 0 W/m2
08:30 5.4 °C 5.1 °C 1027.1 hPa Calm     98% 0.2 mm 0 W/m2
08:35 5.5 °C 5.2 °C 1027.1 hPa SE 4.7 km/h 4.8 km/h 98% 0.2 mm 0 W/m2
08:40 5.6 °C 5.3 °C 1027.1 hPa SE 3.2 km/h 3.2 km/h 98% 0.5 mm 0 W/m2
08:45 5.6 °C 5.3 °C 1027.1 hPa ESE 3.2 km/h 4.8 km/h 98% 0.2 mm 0 W/m2
08:50 5.6 °C 5.3 °C 1027.1 hPa ESE 3.2 km/h 4.8 km/h 98% 0.2 mm 0 W/m2
08:55 5.6 °C 5.3 °C 1027.1 hPa ESE 3.2 km/h 4.8 km/h 98% 0.2 mm 0 W/m2
09:00 5.6 °C 5.3 °C 1027.1 hPa SE 3.2 km/h 6.4 km/h 98% 0.2 mm 7 W/m2
09:05 5.7 °C 5.4 °C 1027.1 hPa ESE 4.7 km/h 4.8 km/h 98% 0.2 mm 9 W/m2
09:10 5.7 °C 5.4 °C 1027.1 hPa SE 1.4 km/h 6.4 km/h 98% 0.2 mm 11 W/m2
09:16 5.8 °C 5.5 °C 1027.4 hPa Calm     98% 0.2 mm 11 W/m2
09:21 5.8 °C 5.5 °C 1027.4 hPa ESE 4.7 km/h 4.8 km/h 98% 0.2 mm 12 W/m2
09:26 5.9 °C 5.6 °C 1027.4 hPa ESE 1.4 km/h 4.8 km/h 98% 0.2 mm 14 W/m2
09:31 5.9 °C 5.6 °C 1027.4 hPa ESE 3.2 km/h 4.8 km/h 98% 0.2 mm 16 W/m2
09:36 5.9 °C 5.6 °C 1027.4 hPa East 6.4 km/h 6.4 km/h 98% 0.5 mm 18 W/m2
09:41 6 °C 5.7 °C 1027.4 hPa East 1.4 km/h 4.8 km/h 98% 0.2 mm 12 W/m2
09:46 6.1 °C 5.8 °C 1027.4 hPa Calm     98% 0.2 mm 12 W/m2
09:51 6.1 °C 5.8 °C 1027.4 hPa ESE 1.4 km/h 3.2 km/h 98% 0.2 mm 16 W/m2
09:56 6.2 °C 5.9 °C 1027.4 hPa Calm     98% 0.2 mm 21 W/m2
10:01 6.2 °C 5.9 °C 1027.4 hPa Calm     98% 0.2 mm 32 W/m2
10:06 6.2 °C 5.9 °C 1027.4 hPa Calm     98% 0.2 mm 33 W/m2
10:11 6.3 °C 6 °C 1027.4 hPa East 3.2 km/h 4.8 km/h 98% 0.5 mm 35 W/m2
10:16 6.4 °C 6.1 °C 1027.4 hPa East 4.7 km/h 6.4 km/h 98% 0.5 mm 39 W/m2
10:21 6.4 °C 6.1 °C 1027.4 hPa Calm   3.2 km/h 98% 0.5 mm 35 W/m2
10:26 6.5 °C 6.2 °C 1027.4 hPa East 1.4 km/h 6.4 km/h 98% 0.5 mm 30 W/m2
10:31 6.6 °C 6.3 °C 1027.4 hPa Calm   4.8 km/h 98% 0.5 mm 26 W/m2
10:36 6.6 °C 6.3 °C 1027.8 hPa East 1.4 km/h 6.4 km/h 98% 0.2 mm 26 W/m2
10:41 6.6 °C 6.3 °C 1027.8 hPa East 1.4 km/h 3.2 km/h 98% 0.2 mm 25 W/m2
10:46 6.7 °C 6.4 °C 1027.8 hPa Calm   3.2 km/h 98% 0.2 mm 26 W/m2
10:51 6.7 °C 6.4 °C 1027.8 hPa East 6.4 km/h 9.7 km/h 98% 0.2 mm 30 W/m2
10:57 6.7 °C 6.4 °C 1027.8 hPa East 4.7 km/h 6.4 km/h 98% 0.2 mm 37 W/m2
11:02 6.8 °C 6.5 °C 1027.8 hPa ENE 3.2 km/h 9.7 km/h 98% 0.5 mm 37 W/m2
11:07 6.8 °C 6.5 °C 1027.4 hPa ESE 4.7 km/h 4.8 km/h 98% 0.5 mm 46 W/m2
11:12 6.9 °C 6.6 °C 1027.4 hPa Calm   4.8 km/h 98% 0.2 mm 49 W/m2
11:17 7.1 °C 6.8 °C 1027.8 hPa Calm   3.2 km/h 98% 0.2 mm 46 W/m2
11:22 7.1 °C 6.8 °C 1027.8 hPa ENE 3.2 km/h 4.8 km/h 98% 0.2 mm 40 W/m2
11:27 7.2 °C 6.9 °C 1027.8 hPa ENE 1.4 km/h 4.8 km/h 98% 0.2 mm 40 W/m2
11:32 7.2 °C 6.9 °C 1027.4 hPa NE 6.4 km/h 6.4 km/h 98% 0.2 mm 40 W/m2
11:37 7.2 °C 6.9 °C 1027.4 hPa Calm   4.8 km/h 98% 0.2 mm 37 W/m2
11:42 7.2 °C 6.9 °C 1027.4 hPa East 3.2 km/h 4.8 km/h 98% 0.2 mm 44 W/m2
11:47 7.2 °C 6.9 °C 1027.4 hPa East 1.4 km/h 6.4 km/h 98% 0.2 mm 58 W/m2
11:52 7.3 °C 7 °C 1027.4 hPa East 3.2 km/h 4.8 km/h 98% 0.2 mm 62 W/m2
11:57 7.5 °C 7.2 °C 1027.4 hPa ENE 3.2 km/h 6.4 km/h 98% 0.2 mm 53 W/m2
12:02 7.5 °C 7.2 °C 1027.4 hPa ENE 4.7 km/h 6.4 km/h 98% 0.0 mm 39 W/m2
12:07 7.6 °C 7.3 °C 1027.4 hPa ENE 4.7 km/h 6.4 km/h 98% 0.0 mm 35 W/m2
12:12 7.6 °C 7.3 °C 1027.1 hPa Calm     98% 0.0 mm 37 W/m2
12:17 7.7 °C 7.4 °C 1027.1 hPa ENE 3.2 km/h 6.4 km/h 98% 0.2 mm 47 W/m2
12:22 7.8 °C 7.5 °C 1027.1 hPa Calm   1.6 km/h 98% 0.2 mm 44 W/m2
12:27 7.9 °C 7.6 °C 1027.1 hPa NE 1.4 km/h 4.8 km/h 98% 0.2 mm 39 W/m2
12:32 8 °C 7.7 °C 1027.1 hPa Calm   1.6 km/h 98% 0.2 mm 26 W/m2
12:37 8.1 °C 7.8 °C 1027.1 hPa NW 3.2 km/h 6.4 km/h 98% 0.2 mm 32 W/m2
12:42 8.2 °C 7.9 °C 1027.1 hPa Calm     98% 0.2 mm 47 W/m2
12:47 8.2 °C 7.9 °C 1027.1 hPa NNE 3.2 km/h 3.2 km/h 98% 0.2 mm 86 W/m2
12:52 8.3 °C 8 °C 1026.8 hPa Calm   4.8 km/h 98% 0.2 mm 90 W/m2
12:57 8.4 °C 8.3 °C 1026.8 hPa NNE 6.4 km/h 6.4 km/h 99% 0.2 mm 69 W/m2
13:02 8.4 °C 8.1 °C 1026.8 hPa Calm   3.2 km/h 98% 0.2 mm 56 W/m2
13:07 8.5 °C 8.2 °C 1026.8 hPa South 3.2 km/h 6.4 km/h 98% 0.2 mm 53 W/m2
13:12 8.5 °C 8.2 °C 1026.8 hPa NE 4.7 km/h 6.4 km/h 98% 0.2 mm 49 W/m2
13:17 8.6 °C 8.3 °C 1026.8 hPa Calm   3.2 km/h 98% 0.0 mm 53 W/m2
13:22 8.6 °C 8.3 °C 1026.8 hPa NE 4.7 km/h 6.4 km/h 98% 0.0 mm 47 W/m2
13:27 8.6 °C 8.3 °C 1026.8 hPa Calm   4.8 km/h 98% 0.0 mm 51 W/m2
13:32 8.6 °C 8.3 °C 1026.8 hPa Calm   1.6 km/h 98% 0.0 mm 54 W/m2
13:37 8.6 °C 8.3 °C 1026.8 hPa Calm   3.2 km/h 98% 0.0 mm 47 W/m2
13:42 8.7 °C 8.4 °C 1026.4 hPa East 4.7 km/h 6.4 km/h 98% 0.0 mm 63 W/m2
13:47 8.7 °C 8.4 °C 1026.4 hPa Calm     98% 0.0 mm 42 W/m2
13:52 8.7 °C 8.4 °C 1026.4 hPa Calm   1.6 km/h 98% 0.0 mm 53 W/m2
13:57 8.8 °C 8.5 °C 1026.4 hPa Calm   4.8 km/h 98% 0.2 mm 62 W/m2
14:02 8.8 °C 8.5 °C 1026.4 hPa Calm   4.8 km/h 98% 0.2 mm 60 W/m2
14:07 8.9 °C 8.6 °C 1026.4 hPa ENE 4.7 km/h 6.4 km/h 98% 0.2 mm 56 W/m2
14:12 8.8 °C 8.5 °C 1026.4 hPa ENE 4.7 km/h 6.4 km/h 98% 0.2 mm 77 W/m2
14:17 8.9 °C 8.6 °C 1026.1 hPa ENE 1.4 km/h 1.6 km/h 98% 0.2 mm 95 W/m2
14:22 9 °C 8.7 °C 1026.1 hPa NNE 6.4 km/h 6.4 km/h 98% 0.2 mm 95 W/m2
14:28 8.9 °C 8.6 °C 1026.1 hPa Calm   6.4 km/h 98% 0.2 mm 56 W/m2
14:33 8.8 °C 8.5 °C 1026.1 hPa ENE 4.7 km/h 8 km/h 98% 0.2 mm 46 W/m2
14:38 8.8 °C 8.5 °C 1026.1 hPa Calm   1.6 km/h 98% 0.2 mm 44 W/m2
14:43 8.8 °C 8.5 °C 1026.1 hPa Calm   4.8 km/h 98% 0.2 mm 39 W/m2
14:48 8.9 °C 8.6 °C 1026.1 hPa East 3.2 km/h 4.8 km/h 98% 0.2 mm 30 W/m2
14:53 8.8 °C 8.5 °C 1026.4 hPa Calm     98% 0.2 mm 25 W/m2
14:58 8.7 °C 8.4 °C 1026.4 hPa ESE 1.4 km/h 3.2 km/h 98% 0.0 mm 23 W/m2
15:03 8.7 °C 8.4 °C 1026.4 hPa East 1.4 km/h 4.8 km/h 98% 0.0 mm 18 W/m2
15:08 8.7 °C 8.4 °C 1026.4 hPa East 1.4 km/h 1.6 km/h 98% 0.0 mm 16 W/m2
15:13 8.8 °C 8.5 °C 1026.4 hPa Calm   1.6 km/h 98% 0.0 mm 18 W/m2
15:18 8.8 °C 8.5 °C 1026.4 hPa SSE 1.4 km/h 3.2 km/h 98% 0.0 mm 18 W/m2
15:23 8.8 °C 8.5 °C 1026.4 hPa Calm     98% 0.0 mm 14 W/m2
15:28 8.8 °C 8.5 °C 1026.4 hPa Calm     98% 0.0 mm 12 W/m2
15:33 8.8 °C 8.5 °C 1026.4 hPa Calm   1.6 km/h 98% 0.0 mm 12 W/m2
15:38 8.8 °C 8.5 °C 1026.4 hPa Calm   4.8 km/h 98% 0.0 mm 11 W/m2
15:43 8.8 °C 8.5 °C 1026.4 hPa ENE 1.4 km/h 3.2 km/h 98% 0.0 mm 12 W/m2
15:48 8.7 °C 8.4 °C 1026.4 hPa Calm   3.2 km/h 98% 0.0 mm 12 W/m2
15:53 8.7 °C 8.4 °C 1026.4 hPa East 3.2 km/h 3.2 km/h 98% 0.0 mm 12 W/m2
15:58 8.7 °C 8.4 °C 1026.4 hPa Calm     98% 0.0 mm 12 W/m2
16:03 8.7 °C 8.4 °C 1026.4 hPa ESE 3.2 km/h 4.8 km/h 98% 0.0 mm 12 W/m2
16:08 8.7 °C 8.4 °C 1026.4 hPa East 4.7 km/h 6.4 km/h 98% 0.0 mm 12 W/m2
16:14 8.6 °C 8.3 °C 1026.1 hPa East 3.2 km/h 4.8 km/h 98% 0.0 mm 9 W/m2
16:19 8.7 °C 8.4 °C 1026.1 hPa East 3.2 km/h 4.8 km/h 98% 0.0 mm 5 W/m2
16:24 8.6 °C 8.3 °C 1026.1 hPa East 3.2 km/h 4.8 km/h 98% 0.0 mm 0 W/m2
16:29 8.6 °C 8.3 °C 1026.1 hPa East 4.7 km/h 6.4 km/h 98% 0.0 mm 5 W/m2
16:34 8.5 °C 8.2 °C 1026.1 hPa East 3.2 km/h 6.4 km/h 98% 0.0 mm 5 W/m2
16:39 8.5 °C 8.2 °C 1025.7 hPa East 1.4 km/h 8 km/h 98% 0.0 mm 5 W/m2
16:44 8.7 °C 8.4 °C 1025.7 hPa ENE 4.7 km/h 6.4 km/h 98% 0.0 mm 0 W/m2
16:49 8.9 °C 8.6 °C 1025.7 hPa Calm     98% 0.0 mm 0 W/m2
16:54 9 °C 8.7 °C 1025.7 hPa Calm   4.8 km/h 98% 0.0 mm 0 W/m2
16:59 9.2 °C 8.9 °C 1025.7 hPa Calm   4.8 km/h 98% 0.0 mm 0 W/m2
17:04 9.3 °C 9 °C 1025.7 hPa West 1.4 km/h 4.8 km/h 98% 0.0 mm 0 W/m2
17:09 9.4 °C 9.3 °C 1025.7 hPa Calm   3.2 km/h 99% 0.0 mm 0 W/m2
17:15 9.4 °C 9.1 °C 1026.1 hPa Calm   1.6 km/h 98% 0.0 mm 0 W/m2
17:20 9.4 °C 9.1 °C 1026.1 hPa Calm     98% 0.0 mm 0 W/m2
17:25 9.3 °C 9 °C 1026.1 hPa South 1.4 km/h 6.4 km/h 98% 0.0 mm 0 W/m2
17:30 9.4 °C 9.1 °C 1026.1 hPa Calm     98% 0.0 mm 0 W/m2
17:35 9.4 °C 9.1 °C 1026.1 hPa SW 1.4 km/h 6.4 km/h 98% 0.0 mm 0 W/m2
17:40 9.5 °C 9.2 °C 1026.1 hPa Calm   4.8 km/h 98% 0.0 mm 0 W/m2
17:45 9.6 °C 9.3 °C 1026.1 hPa Calm   12.9 km/h 98% 0.0 mm 0 W/m2
17:50 9.6 °C 9.3 °C 1026.4 hPa ENE 3.2 km/h 4.8 km/h 98% 0.0 mm 0 W/m2
17:55 9.6 °C 9.3 °C 1026.4 hPa WNW 3.2 km/h 8 km/h 98% 0.0 mm 0 W/m2
18:00 9.6 °C 9.3 °C 1026.4 hPa Calm   6.4 km/h 98% 0.0 mm 0 W/m2
18:05 9.6 °C 9.3 °C 1026.4 hPa Calm   8 km/h 98% 0.0 mm 0 W/m2
18:10 9.6 °C 9.3 °C 1026.4 hPa Calm   1.6 km/h 98% 0.0 mm 0 W/m2
18:15 9.6 °C 9.3 °C 1026.4 hPa Calm     98% 0.0 mm 0 W/m2
18:20 9.7 °C 9.4 °C 1026.8 hPa WSW 1.4 km/h 3.2 km/h 98% 0.0 mm 0 W/m2
18:25 9.7 °C 9.4 °C 1026.4 hPa Calm   4.8 km/h 98% 0.0 mm 0 W/m2
18:30 9.7 °C 9.4 °C 1026.4 hPa Calm     98% 0.0 mm 0 W/m2
18:35 9.7 °C 9.4 °C 1026.4 hPa SSW 3.2 km/h 6.4 km/h 98% 0.0 mm 0 W/m2
18:40 9.7 °C 9.4 °C 1026.4 hPa Calm   4.8 km/h 98% 0.0 mm 0 W/m2
18:45 9.7 °C 9.4 °C 1026.4 hPa Calm   6.4 km/h 98% 0.0 mm 0 W/m2
18:50 9.6 °C 9.3 °C 1026.4 hPa Calm     98% 0.0 mm 0 W/m2
18:55 9.6 °C 9.3 °C 1026.4 hPa Calm   6.4 km/h 98% 0.0 mm 0 W/m2
19:00 9.7 °C 9.4 °C 1026.4 hPa Calm     98% 0.0 mm 0 W/m2
19:05 9.7 °C 9.4 °C 1026.1 hPa Calm   6.4 km/h 98% 0.0 mm 0 W/m2
19:10 9.7 °C 9.4 °C 1026.4 hPa Calm     98% 0.0 mm 0 W/m2
19:15 9.7 °C 9.4 °C 1026.4 hPa WSW 3.2 km/h 11.3 km/h 98% 0.0 mm 0 W/m2
19:20 9.7 °C 9.4 °C 1026.4 hPa SSW 4.7 km/h 4.8 km/h 98% 0.0 mm 0 W/m2
19:25 9.8 °C 9.5 °C 1026.4 hPa Calm   1.6 km/h 98% 0.0 mm 0 W/m2
19:30 9.7 °C 9.4 °C 1026.4 hPa Calm   1.6 km/h 98% 0.0 mm 0 W/m2
19:35 9.7 °C 9.4 °C 1026.4 hPa Calm     98% 0.0 mm 0 W/m2
19:40 9.8 °C 9.5 °C 1026.4 hPa SE 1.4 km/h 4.8 km/h 98% 0.0 mm 0 W/m2
19:45 9.8 °C 9.5 °C 1026.1 hPa Calm   4.8 km/h 98% 0.0 mm 0 W/m2
19:50 9.8 °C 9.5 °C 1026.1 hPa Calm   6.4 km/h 98% 0.0 mm 0 W/m2
19:55 9.8 °C 9.5 °C 1026.1 hPa Calm   3.2 km/h 98% 0.0 mm 0 W/m2
20:00 9.8 °C 9.5 °C 1025.7 hPa Calm   6.4 km/h 98% 0.0 mm 0 W/m2
20:05 9.8 °C 9.5 °C 1026.1 hPa Calm     98% 0.0 mm 0 W/m2
20:10 9.8 °C 9.5 °C 1026.1 hPa Calm   4.8 km/h 98% 0.0 mm 0 W/m2
20:15 9.7 °C 9.4 °C 1026.1 hPa ESE 3.2 km/h 3.2 km/h 98% 0.0 mm 0 W/m2
20:20 9.7 °C 9.4 °C 1025.7 hPa NE 6.4 km/h 6.4 km/h 98% 0.0 mm 0 W/m2
20:25 9.8 °C 9.5 °C 1025.7 hPa NE 3.2 km/h 3.2 km/h 98% 0.0 mm 0 W/m2
20:30 9.8 °C 9.5 °C 1025.7 hPa East 3.2 km/h 3.2 km/h 98% 0.0 mm 0 W/m2
20:35 9.6 °C 9.3 °C 1025.7 hPa East 3.2 km/h 6.4 km/h 98% 0.0 mm 0 W/m2
20:40 9.5 °C 9.2 °C 1025.7 hPa Calm   1.6 km/h 98% 0.0 mm 0 W/m2
20:45 9.4 °C 9.1 °C 1025.7 hPa ESE 3.2 km/h 3.2 km/h 98% 0.0 mm 0 W/m2
20:50 9.3 °C 9 °C 1025.7 hPa East 3.2 km/h 4.8 km/h 98% 0.0 mm 0 W/m2
20:55 9.3 °C 9 °C 1025.7 hPa East 4.7 km/h 4.8 km/h 98% 0.0 mm 0 W/m2
21:01 9.3 °C 9 °C 1025.7 hPa Calm   1.6 km/h 98% 0.0 mm 0 W/m2
21:06 9.3 °C 9 °C 1025.7 hPa ESE 3.2 km/h 6.4 km/h 98% 0.0 mm 0 W/m2
21:11 9.3 °C 9 °C 1025.7 hPa Calm     98% 0.0 mm 0 W/m2
21:16 9.2 °C 8.9 °C 1025.7 hPa Calm   6.4 km/h 98% 0.2 mm 0 W/m2
21:21 9.3 °C 9 °C 1025.7 hPa Calm     98% 0.2 mm 0 W/m2
21:26 9.4 °C 9.1 °C 1025.7 hPa ESE 1.4 km/h 4.8 km/h 98% 0.2 mm 0 W/m2
21:31 9.4 °C 9.1 °C 1025.7 hPa East 1.4 km/h 3.2 km/h 98% 0.2 mm 0 W/m2
21:36 9.3 °C 9 °C 1025.7 hPa East 1.4 km/h 3.2 km/h 98% 0.2 mm 0 W/m2
21:41 9.3 °C 9 °C 1025.7 hPa Calm   4.8 km/h 98% 0.2 mm 0 W/m2
21:46 9.2 °C 8.9 °C 1025.4 hPa SE 3.2 km/h 6.4 km/h 98% 0.2 mm 0 W/m2
21:51 9.2 °C 8.9 °C 1025.4 hPa Calm     98% 0.2 mm 0 W/m2
21:56 9.2 °C 8.9 °C 1025.4 hPa ESE 6.4 km/h 6.4 km/h 98% 0.2 mm 0 W/m2
22:01 9.2 °C 8.9 °C 1025.4 hPa ENE 3.2 km/h 4.8 km/h 98% 0.2 mm 0 W/m2
22:06 9.2 °C 8.9 °C 1025.1 hPa East 1.4 km/h 6.4 km/h 98% 0.2 mm 0 W/m2
22:11 9.2 °C 8.9 °C 1025.1 hPa East 4.7 km/h 4.8 km/h 98% 0.2 mm 0 W/m2
22:16 9.2 °C 8.9 °C 1025.1 hPa Calm   3.2 km/h 98% 0.0 mm 0 W/m2
22:21 9.3 °C 9 °C 1025.1 hPa Calm     98% 0.0 mm 0 W/m2
22:26 9.3 °C 9 °C 1025.1 hPa Calm     98% 0.0 mm 0 W/m2
22:31 9.4 °C 9.1 °C 1025.1 hPa East 4.7 km/h 6.4 km/h 98% 0.0 mm 0 W/m2
22:36 9.4 °C 9.1 °C 1024.7 hPa ENE 3.2 km/h 4.8 km/h 98% 0.0 mm 0 W/m2
22:41 9.4 °C 9.1 °C 1024.7 hPa East 3.2 km/h 4.8 km/h 98% 0.0 mm 0 W/m2
22:46 9.4 °C 9.1 °C 1024.7 hPa East 3.2 km/h 4.8 km/h 98% 0.0 mm 0 W/m2
22:51 9.4 °C 9.1 °C 1024.7 hPa East 1.4 km/h 4.8 km/h 98% 0.0 mm 0 W/m2
22:56 9.3 °C 9 °C 1024.7 hPa East 1.4 km/h 3.2 km/h 98% 0.0 mm 0 W/m2
23:01 9.3 °C 9 °C 1025.1 hPa East 4.7 km/h 4.8 km/h 98% 0.0 mm 0 W/m2
23:06 9.3 °C 9 °C 1024.7 hPa East 1.4 km/h 3.2 km/h 98% 0.0 mm 0 W/m2
23:11 9.2 °C 8.9 °C 1024.7 hPa ESE 3.2 km/h 4.8 km/h 98% 0.0 mm 0 W/m2
23:16 9.1 °C 8.8 °C 1024.7 hPa East 4.7 km/h 6.4 km/h 98% 0.0 mm 0 W/m2
23:21 9.1 °C 8.8 °C 1024.7 hPa ENE 3.2 km/h 4.8 km/h 98% 0.0 mm 0 W/m2
23:26 9 °C 8.7 °C 1024.7 hPa Calm   4.8 km/h 98% 0.0 mm 0 W/m2
23:31 9 °C 8.7 °C 1024.7 hPa ESE 1.4 km/h 3.2 km/h 98% 0.0 mm 0 W/m2
23:36 8.9 °C 8.6 °C 1024.7 hPa Calm   4.8 km/h 98% 0.0 mm 0 W/m2
23:41 8.9 °C 8.6 °C 1024.7 hPa Calm   3.2 km/h 98% 0.0 mm 0 W/m2
23:46 8.9 °C 8.6 °C 1024.7 hPa Calm   4.8 km/h 98% 0.0 mm 0 W/m2
23:51 8.9 °C 8.6 °C 1024.7 hPa Calm     98% 0.0 mm 0 W/m2
23:57 9.1 °C 8.8 °C 1024.7 hPa Calm   3.2 km/h 98% 0.0 mm 0 W/m2
Juneau County Weather
Compliments of Weather Underground - 4 mb